Time;durP1;ratioP1;P1;durP2;ratioP2;P2;SDS_P1;SDS_P2;PMS_P1;PMS_P2;Temp;Humidity;BMP_temperature;BMP_pressure;BME280_temperature;BME280_humidity;BME280_pressure;Samples;Min_cycle;Max_cycle;Signal;HPM_P1;HPM_P2
2022/08/14 00:02:23;;;;;;;12.80;10.30;;;;;;;21.01;72.69;99901.09;106075;1274;108926;-76
2022/08/14 00:04:58;;;;;;;16.00;11.00;;;;;;;21.01;72.65;99897.89;106096;1276;138859;-76
2022/08/14 00:07:30;;;;;;;11.60;9.90;;;;;;;21.00;73.03;99895.25;106106;1274;97945;-75
2022/08/14 00:10:06;;;;;;;12.20;10.30;;;;;;;21.00;72.92;99893.15;107444;1275;138645;-75
2022/08/14 00:12:58;;;;;;;14.50;11.30;;;;;;;20.99;72.99;99888.48;107421;1276;112464;-75
2022/08/14 00:15:40;;;;;;;14.20;11.10;;;;;;;20.99;73.14;99886.48;107367;1276;139298;-75
2022/08/14 00:18:22;;;;;;;12.40;10.80;;;;;;;21.00;73.15;99888.91;107536;1276;107631;-75
2022/08/14 00:21:14;;;;;;;11.50;10.30;;;;;;;21.01;73.07;99885.48;107574;1274;96477;-75
2022/08/14 00:23:48;;;;;;;13.10;11.20;;;;;;;21.01;73.25;99882.96;107485;1274;139546;-75
2022/08/14 00:26:25;;;;;;;11.70;10.50;;;;;;;21.01;73.11;99873.64;107554;1274;112460;-75
2022/08/14 00:28:57;;;;;;;13.30;11.30;;;;;;;21.02;72.98;99870.24;107487;1276;138685;-75
2022/08/14 00:31:29;;;;;;;15.00;10.70;;;;;;;21.01;72.86;99868.15;107545;1276;108953;-76
2022/08/14 00:34:16;;;;;;;14.10;11.00;;;;;;;21.02;73.02;99868.45;106698;1276;138880;-76
2022/08/14 00:37:08;;;;;;;12.50;10.70;;;;;;;21.02;72.82;99862.94;107308;1274;96367;-76
2022/08/14 00:39:41;;;;;;;11.00;9.90;;;;;;;21.02;72.91;99862.08;105891;1276;139219;-75
2022/08/14 00:42:14;;;;;;;11.30;9.50;;;;;;;21.02;72.64;99859.80;106135;1276;108947;-75
2022/08/14 00:45:11;;;;;;;11.60;9.80;;;;;;;21.00;72.67;99858.49;106057;1275;109186;-75
2022/08/14 00:47:46;;;;;;;11.70;9.20;;;;;;;21.00;72.50;99861.14;106078;1274;139999;-74
2022/08/14 00:50:21;;;;;;;14.60;9.70;;;;;;;20.99;72.37;99859.28;106101;1276;98236;-74
2022/08/14 00:52:58;;;;;;;9.50;8.40;;;;;;;20.97;72.29;99856.98;105849;1276;138450;-75
2022/08/14 00:55:34;;;;;;;10.00;8.90;;;;;;;20.95;72.12;99854.65;105959;1273;109043;-75
2022/08/14 01:02:10;;;;;;;11.60;9.20;;;;;;;20.94;72.17;99854.02;105998;1274;97901;-75
2022/08/14 01:04:43;;;;;;;12.30;9.20;;;;;;;20.94;72.16;99849.14;107468;1274;138292;-75
2022/08/14 01:07:28;;;;;;;11.30;8.50;;;;;;;20.92;72.07;99848.04;107562;1274;111525;-75
2022/08/14 01:10:18;;;;;;;9.80;8.50;;;;;;;20.92;72.00;99855.27;107474;1274;139405;-75
2022/08/14 01:12:50;;;;;;;9.70;8.30;;;;;;;20.92;71.93;99854.38;107533;1274;108776;-75
2022/08/14 01:15:25;;;;;;;10.00;8.90;;;;;;;20.91;71.59;99854.16;107560;1274;95960;-75
2022/08/14 01:21:13;;;;;;;10.60;8.20;;;;;;;20.87;71.47;99842.27;106970;1276;112379;-77
2022/08/14 01:23:50;;;;;;;9.40;8.50;;;;;;;20.87;71.67;99846.40;107169;1278;138963;-75
2022/08/14 01:26:27;;;;;;;12.60;9.00;;;;;;;20.86;71.35;99839.05;107169;1274;108964;-74
2022/08/14 01:29:10;;;;;;;13.90;8.60;;;;;;;20.85;71.32;99842.48;105925;1276;139393;-74
2022/08/14 01:32:03;;;;;;;8.90;8.00;;;;;;;20.83;71.24;99838.73;106105;1275;97871;-75
2022/08/14 01:34:41;;;;;;;10.40;8.20;;;;;;;20.83;70.99;99838.21;105951;1276;138753;-75
2022/08/14 01:37:34;;;;;;;9.60;8.50;;;;;;;20.82;71.00;99838.63;106062;1276;107713;-74
2022/08/14 01:40:08;;;;;;;12.20;8.20;;;;;;;20.79;71.06;99839.50;105953;1275;140683;-77
2022/08/14 01:42:43;;;;;;;9.50;8.10;;;;;;;20.77;70.95;99840.58;107597;1276;96097;-75
2022/08/14 01:45:16;;;;;;;9.40;8.00;;;;;;;20.75;70.81;99849.06;107508;1276;96141;-75
2022/08/14 01:47:56;;;;;;;10.70;8.60;;;;;;;20.74;70.92;99844.56;107432;1275;138178;-75
2022/08/14 01:50:34;;;;;;;10.60;8.10;;;;;;;20.73;70.94;99849.92;107111;1275;109283;-75
2022/08/14 01:53:07;;;;;;;10.20;8.10;;;;;;;20.72;71.10;99853.00;105971;1275;138953;-77
2022/08/14 01:55:39;;;;;;;9.50;7.60;;;;;;;20.72;70.69;99854.50;106074;1274;97928;-75
2022/08/14 01:58:13;;;;;;;11.50;7.90;;;;;;;20.70;70.85;99853.73;106024;1277;138738;-76
2022/08/14 02:01:35;;;;;;;8.70;7.90;;;;;;;20.67;70.60;99855.02;106125;1266;112738;31
2022/08/14 02:04:08;;;;;;;11.90;7.90;;;;;;;20.66;70.74;99854.97;104857;1283;138491;-74
2022/08/14 02:07:02;;;;;;;11.70;7.50;;;;;;;20.63;70.80;99856.00;105404;1283;108603;-75
2022/08/14 02:09:37;;;;;;;9.60;7.90;;;;;;;20.62;70.86;99857.70;105515;1283;139408;-71
2022/08/14 02:12:11;;;;;;;9.10;7.70;;;;;;;20.61;70.78;99855.90;105344;1284;97978;-74
2022/08/14 02:14:59;;;;;;;10.80;7.50;;;;;;;20.60;70.90;99852.82;105265;1284;112500;-75
2022/08/14 02:17:35;;;;;;;12.80;8.10;;;;;;;20.59;70.93;99853.59;105329;1284;139624;-74
2022/08/14 02:20:11;;;;;;;8.80;7.70;;;;;;;20.58;70.72;99846.77;105590;1283;108839;-75
2022/08/14 02:22:43;;;;;;;9.10;7.80;;;;;;;20.56;70.84;99849.20;106598;1282;139640;-75
2022/08/14 02:25:19;;;;;;;8.90;7.60;;;;;;;20.56;70.96;99846.05;106686;1282;96190;-75
2022/08/14 02:27:54;;;;;;;10.60;7.20;;;;;;;20.55;70.97;99847.02;106574;1283;140020;-75
2022/08/14 02:30:47;;;;;;;10.50;7.50;;;;;;;20.53;70.76;99840.08;105618;1283;109153;-74
2022/08/14 02:33:23;;;;;;;11.50;7.80;;;;;;;20.53;70.99;99834.10;105449;1284;108752;-75
2022/08/14 02:36:00;;;;;;;8.30;7.60;;;;;;;20.50;70.76;99833.05;105354;1283;139343;-75
2022/08/14 02:38:52;;;;;;;11.00;8.40;;;;;;;20.47;70.82;99827.45;105462;1284;97862;-74
2022/08/14 02:41:25;;;;;;;15.70;7.90;;;;;;;20.46;71.00;99823.49;105416;1284;138584;-74
2022/08/14 02:43:59;;;;;;;9.20;7.90;;;;;;;20.44;71.10;99819.09;105480;1284;109049;-74
2022/08/14 02:46:32;;;;;;;10.00;8.00;;;;;;;20.42;71.14;99823.42;106559;1283;139600;-75
2022/08/14 02:49:05;;;;;;;9.10;8.10;;;;;;;20.40;71.11;99822.71;105895;1284;97886;-74
2022/08/14 02:51:38;;;;;;;9.00;8.10;;;;;;;20.37;71.09;99817.10;105522;1283;138722;-74
2022/08/14 02:54:11;;;;;;;9.60;7.70;;;;;;;20.35;71.13;99814.65;106730;1283;112603;-75
2022/08/14 02:56:50;;;;;;;10.70;7.80;;;;;;;20.32;71.26;99813.67;106704;1283;109509;-75
2022/08/14 02:59:42;;;;;;;10.10;7.70;;;;;;;20.30;71.37;99818.61;105741;1284;139464;-75
2022/08/14 03:02:17;;;;;;;10.00;7.70;;;;;;;20.29;71.46;99819.90;105417;1283;97940;-75
2022/08/14 03:05:11;;;;;;;11.60;7.80;;;;;;;20.26;71.50;99818.90;105210;1284;138581;-74
2022/08/14 03:07:43;;;;;;;9.70;8.10;;;;;;;20.24;71.59;99821.17;105780;1284;112228;-74
2022/08/14 03:10:22;;;;;;;9.30;7.70;;;;;;;20.23;71.87;99816.10;105253;1284;140116;-74
2022/08/14 03:13:04;;;;;;;9.00;7.80;;;;;;;20.23;71.98;99814.48;106017;1284;107973;-75
2022/08/14 03:15:46;;;;;;;9.50;7.20;;;;;;;20.23;71.88;99808.68;106508;1284;138613;-74
2022/08/14 03:18:23;;;;;;;9.30;8.10;;;;;;;20.22;71.95;99808.27;106676;1284;96399;-74
2022/08/14 03:21:06;;;;;;;12.40;8.20;;;;;;;20.21;72.05;99800.89;106640;1284;111581;-74
2022/08/14 03:23:39;;;;;;;12.00;8.10;;;;;;;20.21;72.03;99801.09;106542;1284;138836;-74
2022/08/14 03:26:16;;;;;;;10.40;8.10;;;;;;;20.20;71.87;99795.91;106668;1283;108863;-74
2022/08/14 03:28:52;;;;;;;9.50;7.90;;;;;;;20.19;72.01;99793.70;105713;1283;138655;-74
2022/08/14 03:31:24;;;;;;;11.50;7.90;;;;;;;20.18;72.05;99794.59;105445;1284;97882;-75
2022/08/14 03:33:59;;;;;;;11.20;7.50;;;;;;;20.18;72.10;99795.30;106553;1283;138667;-76
2022/08/14 03:36:34;;;;;;;11.10;7.30;;;;;;;20.17;72.00;99796.46;106582;1284;108899;-75
2022/08/14 03:39:26;;;;;;;8.90;7.50;;;;;;;20.18;72.01;99794.49;105937;1283;109031;-74
2022/08/14 03:41:59;;;;;;;9.10;7.50;;;;;;;20.17;72.03;99790.98;105327;1284;140032;-76
2022/08/14 03:44:34;;;;;;;9.30;8.00;;;;;;;20.17;71.96;99787.30;105516;1284;97847;-74
2022/08/14 03:47:27;;;;;;;10.60;7.10;;;;;;;20.18;72.13;99791.98;106021;1284;138288;-75
2022/08/14 03:50:19;;;;;;;9.10;7.20;;;;;;;20.18;72.17;99797.95;105408;1284;108891;-75
2022/08/14 03:53:04;;;;;;;11.20;7.60;;;;;;;20.20;72.18;99798.12;106009;1284;138953;-75
2022/08/14 03:55:38;;;;;;;10.40;7.80;;;;;;;20.23;72.12;99795.99;105328;1284;97908;-74
2022/08/14 03:58:11;;;;;;;12.30;7.40;;;;;;;20.26;72.13;99796.64;105314;1284;138596;-75
2022/08/14 04:01:04;;;;;;;8.30;7.20;;;;;;;20.28;72.13;99795.27;105422;1284;112255;-74
2022/08/14 04:03:37;;;;;;;15.20;7.40;;;;;;;20.29;72.20;99791.65;105291;1283;138848;-73
2022/08/14 04:06:10;;;;;;;10.10;7.20;;;;;;;20.29;71.89;99789.52;105408;1284;108601;-74
2022/08/14 04:08:52;;;;;;;10.00;7.00;;;;;;;20.29;71.84;99789.54;105321;1284;98541;-75
2022/08/14 04:11:28;;;;;;;;;;;;;;;20.29;72.03;99783.51;106630;1282;138389;-75
2022/08/14 04:14:00;;;;;;;11.70;7.70;;;;;;;20.29;71.92;99789.02;106702;1283;111455;-75
2022/08/14 04:16:36;;;;;;;9.50;6.90;;;;;;;20.30;72.13;99793.38;106561;1284;139665;-76
2022/08/14 04:19:10;;;;;;;12.30;7.60;;;;;;;20.32;72.08;99799.88;106663;1284;108885;-75
2022/08/14 04:21:42;;;;;;;11.70;7.40;;;;;;;20.37;72.06;99805.33;105537;1284;139390;-73
2022/08/14 04:24:35;;;;;;;9.00;6.80;;;;;;;20.44;72.05;99807.56;106651;1284;95768;-75
2022/08/14 04:27:11;;;;;;;7.70;6.90;;;;;;;20.52;72.14;99806.77;106350;1284;111121;-75
2022/08/14 04:29:47;;;;;;;11.10;7.20;;;;;;;20.60;71.89;99804.91;105259;1284;138704;-72
2022/08/14 04:32:25;;;;;;;9.80;6.80;;;;;;;20.67;71.91;99804.02;105399;1284;108898;-74
2022/08/14 04:35:17;;;;;;;11.60;7.30;;;;;;;20.74;71.83;99804.27;105310;1284;138849;-75
2022/08/14 04:44:01;;;;;;;13.30;8.00;;;;;;;20.86;71.26;99813.92;106677;1284;108779;-74
2022/08/14 04:46:36;;;;;;;12.60;7.70;;;;;;;20.86;71.17;99816.06;106545;1283;141090;-75
2022/08/14 04:49:28;;;;;;;13.10;7.90;;;;;;;20.84;71.33;99815.29;106709;1283;97700;-75
2022/08/14 04:52:02;;;;;;;10.20;7.50;;;;;;;20.86;71.28;99820.08;106591;1283;138658;-74
2022/08/14 04:54:46;;;;;;;10.20;7.20;;;;;;;20.88;71.22;99820.13;106670;1283;112525;-75
2022/08/14 04:57:18;;;;;;;9.60;7.60;;;;;;;20.92;71.32;99817.65;106693;1283;109326;-75
2022/08/14 04:59:51;;;;;;;10.40;7.80;;;;;;;21.00;71.30;99814.53;106443;1284;138741;-75
2022/08/14 05:02:26;;;;;;;11.50;7.70;;;;;;;21.06;71.20;99818.92;106668;1282;96200;-75
2022/08/14 05:04:59;;;;;;;12.20;8.30;;;;;;;21.13;71.08;99809.91;106219;1284;138986;-77
2022/08/14 05:07:32;;;;;;;9.90;7.30;;;;;;;21.18;71.12;99806.67;105338;1284;112605;-75
2022/08/14 05:10:25;;;;;;;9.10;8.10;;;;;;;21.36;71.24;99807.67;105235;1284;138697;-75
2022/08/14 05:13:04;;;;;;;11.70;8.20;;;;;;;21.58;70.72;99803.71;105373;1284;110240;-75
2022/08/14 05:15:46;;;;;;;13.30;8.30;;;;;;;21.62;70.42;99805.94;105238;1284;139681;-75
2022/08/14 05:18:26;;;;;;;10.90;8.30;;;;;;;21.74;70.54;99808.89;105269;1284;97865;-76
2022/08/14 05:21:18;;;;;;;8.80;7.90;;;;;;;21.97;69.85;99811.61;105398;1284;111537;-77
2022/08/14 05:24:11;;;;;;;14.00;8.60;;;;;;;22.11;69.52;99811.53;105404;1284;109025;-75
2022/08/14 05:26:49;;;;;;;9.90;8.00;;;;;;;22.51;69.84;99812.93;105382;1284;107735;-74
2022/08/14 05:29:22;;;;;;;10.10;8.40;;;;;;;23.29;68.89;99806.27;105243;1284;138396;-74
2022/08/14 05:31:56;;;;;;;10.70;7.40;;;;;;;24.41;67.81;99802.79;105477;1284;97849;-73
2022/08/14 05:34:29;;;;;;;8.60;7.70;;;;;;;25.66;65.74;99801.67;105302;1284;138460;-73
2022/08/14 05:37:03;;;;;;;8.40;7.40;;;;;;;26.47;62.93;99802.60;105412;1284;108684;-73
2022/08/14 05:39:38;;;;;;;8.30;7.00;;;;;;;26.78;61.93;99804.43;105194;1284;139476;-72
2022/08/14 05:42:12;;;;;;;12.00;8.40;;;;;;;27.64;60.21;99798.30;105422;1284;97876;-74
2022/08/14 05:44:53;;;;;;;10.70;7.60;;;;;;;28.12;58.98;99798.79;105341;1284;97857;-74
2022/08/14 05:47:26;;;;;;;13.20;8.30;;;;;;;28.66;58.12;99798.77;105311;1284;139600;-73
2022/08/14 05:50:05;;;;;;;12.80;8.20;;;;;;;28.83;55.84;99794.77;106675;1283;108790;-75
2022/08/14 05:52:49;;;;;;;10.00;7.80;;;;;;;28.63;54.96;99794.33;106433;1284;138679;-75
2022/08/14 05:55:22;;;;;;;9.70;8.20;;;;;;;28.38;55.22;99798.56;106650;1284;96367;-75
2022/08/14 05:57:58;;;;;;;9.30;8.10;;;;;;;28.72;55.40;99789.98;105888;1284;138583;-74
2022/08/14 06:00:32;;;;;;;8.10;7.10;;;;;;;29.35;55.25;99786.45;105391;1284;112932;-73
2022/08/14 06:03:13;;;;;;;11.50;8.00;;;;;;;30.38;53.71;99782.55;106604;1284;107877;-74
2022/08/14 06:05:50;;;;;;;13.40;8.20;;;;;;;30.60;52.14;99784.02;105582;1284;138236;-74
2022/08/14 06:08:25;;;;;;;13.60;7.70;;;;;;;30.84;51.80;99781.06;106683;1284;96238;-74
2022/08/14 06:11:12;;;;;;;10.60;8.70;;;;;;;31.40;50.81;99780.25;106168;1284;138240;-74
2022/08/14 06:13:51;;;;;;;9.20;7.40;;;;;;;31.15;50.02;99785.74;105465;1284;112556;-75
2022/08/14 06:16:23;;;;;;;12.50;8.30;;;;;;;31.30;50.24;99781.66;105298;1284;139105;-73
2022/08/14 06:18:55;;;;;;;15.60;8.90;;;;;;;31.45;49.72;99785.02;105415;1283;109060;-74
2022/08/14 06:21:30;;;;;;;10.50;9.00;;;;;;;30.94;49.27;99784.40;105406;1284;97854;-74
2022/08/14 06:24:04;;;;;;;11.60;9.80;;;;;;;30.06;49.80;99779.10;105424;1284;97862;-73
2022/08/14 06:26:41;;;;;;;12.20;9.00;;;;;;;29.68;50.74;99778.75;105443;1284;112500;-73
2022/08/14 06:29:23;;;;;;;10.60;8.50;;;;;;;29.35;50.68;99779.27;105313;1284;138374;-74
2022/08/14 06:31:56;;;;;;;16.30;9.90;;;;;;;28.73;51.73;99778.48;105467;1283;109059;-74
2022/08/14 06:34:48;;;;;;;15.60;10.70;;;;;;;28.25;52.36;99777.55;105233;1284;139534;-74
2022/08/14 06:37:47;;;;;;;13.50;10.00;;;;;;;27.63;52.76;99780.70;105611;1284;97950;-74
2022/08/14 06:40:22;;;;;;;13.40;10.00;;;;;;;27.26;53.99;99785.04;105265;1284;138959;-73
2022/08/14 06:43:01;;;;;;;12.90;10.50;;;;;;;26.92;54.67;99787.97;105485;1284;108749;-74
2022/08/14 06:45:36;;;;;;;14.50;9.90;;;;;;;26.51;55.15;99786.84;105415;1284;109274;-74
2022/08/14 06:48:16;;;;;;;13.30;11.00;;;;;;;26.18;56.09;99780.48;106628;1284;95976;-74
2022/08/14 06:50:54;;;;;;;12.40;11.20;;;;;;;26.13;56.48;99780.34;106671;1283;96157;-75
2022/08/14 06:53:28;;;;;;;13.90;10.90;;;;;;;26.19;57.16;99790.24;105876;1282;142440;-74
2022/08/14 06:56:01;;;;;;;14.60;11.40;;;;;;;27.02;56.74;99788.33;105491;1284;108632;-74
2022/08/14 06:58:35;;;;;;;13.00;11.80;;;;;;;27.46;55.34;99795.46;106525;1284;138736;-76
2022/08/14 07:06:55;;;;;;;16.10;12.30;;;;;;;26.16;56.89;99788.20;106666;1283;111333;-76
2022/08/14 07:09:30;;;;;;;13.10;11.70;;;;;;;26.33;57.49;99786.76;106633;1284;109293;-76
2022/08/14 07:12:22;;;;;;;14.00;11.50;;;;;;;26.59;57.50;99790.47;105686;1284;108563;-75
2022/08/14 07:15:15;;;;;;;12.70;11.20;;;;;;;27.85;56.94;99784.30;106188;1284;96752;-75
2022/08/14 07:17:50;;;;;;;13.30;11.50;;;;;;;29.36;55.08;99786.42;106537;1284;138602;-74
2022/08/14 07:20:23;;;;;;;16.10;11.20;;;;;;;30.25;52.27;99784.86;106689;1283;112522;-78
2022/08/14 07:23:05;;;;;;;11.80;10.60;;;;;;;31.04;51.15;99788.39;105829;1284;138636;-75
2022/08/14 07:25:52;;;;;;;12.00;10.20;;;;;;;31.78;50.66;99785.76;106657;1284;109002;-75
2022/08/14 07:28:26;;;;;;;12.30;9.80;;;;;;;32.06;49.62;99783.08;106551;1284;138441;-76
2022/08/14 07:30:59;;;;;;;12.80;9.90;;;;;;;31.90;49.17;99781.73;106186;1284;96526;-75
2022/08/14 07:33:40;;;;;;;11.90;10.60;;;;;;;32.31;49.28;99776.33;105348;1284;139011;-71
2022/08/14 07:36:21;;;;;;;13.70;9.90;;;;;;;32.86;48.59;99772.13;106544;1284;108847;-75
2022/08/14 07:39:01;;;;;;;10.70;9.60;;;;;;;33.18;47.31;99777.52;106638;1283;108925;-75
2022/08/14 07:41:44;;;;;;;11.30;9.70;;;;;;;33.13;46.59;99775.28;105814;1284;139965;-75
2022/08/14 07:44:17;;;;;;;14.00;9.40;;;;;;;33.31;46.51;99770.80;106689;1284;95997;-75
2022/08/14 07:47:07;;;;;;;11.50;9.40;;;;;;;33.67;45.55;99776.65;106552;1284;138025;-75
2022/08/14 07:49:39;;;;;;;11.50;10.30;;;;;;;33.95;45.02;99772.30;106670;1284;108893;-75
2022/08/14 07:52:14;;;;;;;11.30;9.50;;;;;;;33.99;44.23;99764.90;106549;1283;138768;-75
2022/08/14 07:55:02;;;;;;;12.10;9.50;;;;;;;34.09;44.68;99766.73;105387;1284;97867;-74
2022/08/14 07:57:35;;;;;;;12.00;8.90;;;;;;;34.18;44.51;99761.08;105430;1284;99238;-75
2022/08/14 08:00:13;;;;;;;12.30;9.40;;;;;;;34.73;44.31;99762.55;105459;1284;111089;-75
2022/08/14 08:03:03;;;;;;;11.40;9.40;;;;;;;35.06;43.28;99765.62;106139;1284;109189;-75
2022/08/14 08:05:36;;;;;;;11.60;9.10;;;;;;;35.62;43.21;99764.88;106508;1284;138460;-75
2022/08/14 08:08:09;;;;;;;11.10;9.00;;;;;;;35.98;42.19;99761.86;105502;1284;97889;-75
2022/08/14 08:10:59;;;;;;;11.40;9.00;;;;;;;36.26;42.02;99762.09;106273;1284;138705;-76
2022/08/14 08:13:35;;;;;;;10.10;9.10;;;;;;;36.61;40.65;99762.25;105658;1284;112035;-75
2022/08/14 08:16:09;;;;;;;;;;;;;;;37.13;40.35;99764.96;106460;1284;139216;-75
2022/08/14 08:18:42;;;;;;;11.50;8.90;;;;;;;37.32;39.84;99760.31;105936;1284;108664;-75
2022/08/14 08:21:15;;;;;;;11.30;8.50;;;;;;;37.93;39.81;99761.30;105513;1284;97879;-75
2022/08/14 08:23:49;;;;;;;10.70;9.50;;;;;;;38.22;38.10;99761.55;106180;1283;138751;-75
2022/08/14 08:26:28;;;;;;;11.00;8.90;;;;;;;37.71;37.39;99758.15;105892;1284;111475;-76
2022/08/14 08:29:00;;;;;;;13.30;9.70;;;;;;;36.40;37.57;99760.76;105305;1284;139006;-75
2022/08/14 08:31:35;;;;;;;10.80;9.60;;;;;;;35.67;39.22;99766.66;106050;1284;107801;-75
2022/08/14 08:34:07;;;;;;;12.30;9.30;;;;;;;35.17;39.56;99760.13;105250;1284;138602;-75
2022/08/14 08:36:45;;;;;;;13.80;10.60;;;;;;;34.53;40.26;99761.64;106664;1282;96019;-76
2022/08/14 08:39:17;;;;;;;12.70;10.20;;;;;;;33.85;40.59;99758.73;105791;1283;112810;-75
2022/08/14 08:41:52;;;;;;;;;;;;;;;33.09;41.52;99762.89;106563;1284;138467;-75
2022/08/14 08:44:31;;;;;;;14.10;10.60;;;;;;;32.51;42.73;99763.45;106630;1284;109247;-78
2022/08/14 08:47:06;;;;;;;11.80;10.40;;;;;;;32.17;42.85;99762.42;106589;1283;138756;-75
2022/08/14 08:49:42;;;;;;;12.90;10.50;;;;;;;31.59;43.60;99764.92;106704;1284;96387;-78
2022/08/14 08:52:30;;;;;;;14.10;11.40;;;;;;;31.21;44.00;99767.39;106525;1283;138882;-79
2022/08/14 08:55:03;;;;;;;15.00;10.60;;;;;;;30.79;44.49;99769.83;106052;1284;109119;-77
2022/08/14 08:57:39;;;;;;;14.40;11.60;;;;;;;30.35;45.75;99766.99;105820;1284;108998;-81
2022/08/14 09:00:17;;;;;;;20.60;11.50;;;;;;;29.88;46.25;99765.15;106636;1283;96186;-81
2022/08/14 09:03:01;;;;;;;14.50;12.00;;;;;;;29.10;47.14;99770.52;106489;1284;96066;-81
2022/08/14 09:05:35;;;;;;;14.00;12.50;;;;;;;28.79;48.38;99771.08;106538;1284;139659;-79
2022/08/14 09:08:17;;;;;;;18.20;13.80;;;;;;;28.71;48.84;99767.71;106233;1283;109706;-77
2022/08/14 09:11:05;;;;;;;18.20;12.60;;;;;;;28.61;49.54;99771.92;105774;1284;139224;-79
2022/08/14 09:13:54;;;;;;;18.60;12.50;;;;;;;28.11;49.91;99775.33;106654;1284;95838;-76
2022/08/14 09:16:26;;;;;;;14.70;12.70;;;;;;;27.81;51.05;99772.91;105917;1284;139002;-78
2022/08/14 09:18:59;;;;;;;21.70;12.00;;;;;;;27.64;51.48;99768.48;106651;1284;112816;-80
2022/08/14 09:21:33;;;;;;;17.20;12.70;;;;;;;27.39;52.27;99776.90;106653;1283;108928;-78
2022/08/14 09:24:07;;;;;;;15.00;12.50;;;;;;;27.24;52.65;99771.45;106648;1283;109020;-79
2022/08/14 09:26:59;;;;;;;18.00;11.90;;;;;;;27.14;53.32;99767.21;106236;1284;97691;-74
2022/08/14 09:29:31;;;;;;;14.00;11.70;;;;;;;27.47;53.68;99760.89;106573;1283;137515;-76
2022/08/14 09:32:07;;;;;;;12.90;11.20;;;;;;;28.17;53.25;99754.99;106654;1284;112262;-76
2022/08/14 09:35:11;;;;;;;15.00;11.90;;;;;;;28.65;51.83;99751.14;106487;1284;138822;-75
2022/08/14 09:37:55;;;;;;;18.50;11.50;;;;;;;28.54;51.24;99755.77;105589;1283;108951;-75
2022/08/14 09:40:38;;;;;;;16.90;11.90;;;;;;;28.69;51.68;99758.91;106015;1284;139578;-76
2022/08/14 09:43:22;;;;;;;13.80;11.40;;;;;;;28.74;51.64;99754.91;106635;1283;95948;-76
2022/08/14 09:45:57;;;;;;;14.70;12.10;;;;;;;28.56;51.34;99755.52;106526;1284;139396;-77
2022/08/14 09:48:33;;;;;;;13.50;12.10;;;;;;;28.21;51.80;99756.73;106635;1284;107833;-75
2022/08/14 09:51:08;;;;;;;17.20;12.40;;;;;;;27.87;52.22;99756.31;106666;1284;108842;-75
2022/08/14 09:53:59;;;;;;;17.00;12.90;;;;;;;27.62;52.93;99757.09;106519;1284;139365;-75
2022/08/14 09:56:52;;;;;;;14.20;12.70;;;;;;;27.52;53.40;99751.89;106088;1284;96884;-79
2022/08/14 09:59:46;;;;;;;15.80;12.80;;;;;;;27.51;53.27;99749.04;106569;1284;139775;-79
2022/08/14 10:02:30;;;;;;;24.40;13.00;;;;;;;27.52;53.85;99747.66;106513;1283;108564;-83
2022/08/14 10:05:08;;;;;;;14.50;12.80;;;;;;;27.45;53.53;99744.99;105301;1284;138828;-78
2022/08/14 10:07:50;;;;;;;14.50;12.90;;;;;;;27.41;53.98;99745.16;106003;1284;96088;-78
2022/08/14 10:10:32;;;;;;;13.60;11.90;;;;;;;27.28;54.23;99739.13;106458;1283;138530;-77
2022/08/14 10:13:08;;;;;;;17.70;12.60;;;;;;;27.24;54.63;99738.21;106684;1284;112487;-77
2022/08/14 10:15:48;;;;;;;19.40;12.90;;;;;;;27.30;54.73;99733.67;106608;1284;139049;-78
2022/08/14 10:18:28;;;;;;;17.70;12.40;;;;;;;27.61;54.34;99732.11;106662;1283;108965;-75
2022/08/14 10:21:03;;;;;;;14.20;12.70;;;;;;;27.45;53.84;99730.36;105581;1284;97906;-79
2022/08/14 10:23:48;;;;;;;14.30;12.70;;;;;;;27.23;54.31;99734.44;105391;1284;138712;-79
2022/08/14 10:26:23;;;;;;;19.50;13.30;;;;;;;27.11;54.67;99738.46;105307;1284;112574;-77
2022/08/14 10:29:09;;;;;;;17.70;13.10;;;;;;;27.20;55.01;99729.95;106541;1284;139611;-79
2022/08/14 10:32:00;;;;;;;15.80;12.30;;;;;;;27.48;55.11;99724.20;106655;1283;107923;-76
2022/08/14 10:34:36;;;;;;;14.80;12.50;;;;;;;27.76;54.44;99725.19;106541;1284;139136;-77
2022/08/14 10:37:15;;;;;;;20.60;13.60;;;;;;;27.74;54.34;99728.98;106649;1283;96268;-76
2022/08/14 10:40:00;;;;;;;17.80;13.40;;;;;;;27.70;54.22;99727.09;105482;1284;139260;-78
2022/08/14 10:42:53;;;;;;;20.10;13.50;;;;;;;27.56;54.02;99728.50;106688;1283;109410;-78
2022/08/14 10:45:30;;;;;;;15.10;13.30;;;;;;;27.34;54.22;99731.67;106496;1283;108783;-82
2022/08/14 10:48:16;;;;;;;16.30;13.30;;;;;;;27.17;54.52;99731.57;106220;1284;96631;-79
2022/08/14 10:51:09;;;;;;;15.20;13.60;;;;;;;27.24;55.21;99720.41;106645;1283;95994;-78
2022/08/14 10:53:41;;;;;;;15.40;12.70;;;;;;;27.45;55.37;99724.73;106538;1284;138715;-82
2022/08/14 10:56:13;;;;;;;18.30;14.20;;;;;;;27.63;54.88;99719.98;106646;1282;108820;-77
2022/08/14 10:59:07;;;;;;;16.60;13.20;;;;;;;27.76;54.63;99718.42;106564;1284;139026;-81
2022/08/14 11:01:41;;;;;;;19.20;13.30;;;;;;;27.70;54.06;99717.24;106613;1283;95959;-80
2022/08/14 11:04:27;;;;;;;17.90;13.10;;;;;;;27.77;54.35;99712.80;104599;1284;1434642;-78
2022/08/14 11:07:02;;;;;;;15.30;13.70;;;;;;;27.97;54.47;99706.48;105496;1284;113201;-76
2022/08/14 11:09:37;;;;;;;15.00;13.30;;;;;;;28.20;54.14;99706.55;106138;1284;139132;-77
2022/08/14 11:12:13;;;;;;;15.10;12.90;;;;;;;28.20;53.33;99701.53;106223;1284;108849;-76
2022/08/14 11:15:06;;;;;;;16.10;13.10;;;;;;;28.35;53.42;99697.02;106651;1283;96104;-79
2022/08/14 11:17:39;;;;;;;17.90;13.90;;;;;;;28.33;53.34;99694.80;106543;1284;138873;-82
2022/08/14 11:20:19;;;;;;;16.10;14.10;;;;;;;28.37;53.05;99692.50;106625;1284;112584;-78
2022/08/14 11:22:57;;;;;;;18.30;13.60;;;;;;;28.35;53.24;99691.61;106546;1283;139576;-83
2022/08/14 11:25:31;;;;;;;16.20;12.90;;;;;;;28.31;53.14;99686.91;106582;1284;106792;-75
2022/08/14 11:28:16;;;;;;;15.20;12.90;;;;;;;28.34;53.46;99693.25;105676;1284;139402;-76
2022/08/14 11:30:51;;;;;;;14.60;12.70;;;;;;;28.39;53.25;99690.11;105966;1283;97728;-76
2022/08/14 11:33:29;;;;;;;19.80;14.30;;;;;;;28.49;53.30;99681.66;106356;1284;112558;-75
2022/08/14 11:36:06;;;;;;;15.60;13.30;;;;;;;28.45;52.35;99684.04;106655;1283;108423;-79
2022/08/14 11:38:49;;;;;;;22.10;14.20;;;;;;;28.40;52.85;99684.15;106618;1284;107802;-76
2022/08/14 11:41:25;;;;;;;24.80;13.90;;;;;;;28.27;52.62;99679.44;105605;1284;138952;-77
2022/08/14 11:43:58;;;;;;;17.10;14.10;;;;;;;28.11;52.69;99687.09;105321;1284;97930;-74
2022/08/14 11:46:31;;;;;;;20.60;14.10;;;;;;;28.07;53.22;99685.08;105205;1284;139845;-77
2022/08/14 11:49:09;;;;;;;16.50;13.20;;;;;;;28.20;53.51;99690.80;105196;1284;108989;-74
2022/08/14 11:51:53;;;;;;;15.40;13.70;;;;;;;28.32;53.67;99690.95;105744;1283;139631;-78
2022/08/14 11:54:25;;;;;;;15.20;13.60;;;;;;;28.24;53.06;99689.98;105794;1284;97876;-78
2022/08/14 11:57:13;;;;;;;16.70;13.50;;;;;;;28.16;52.86;99692.92;106343;1284;96514;-74
2022/08/14 11:59:59;;;;;;;15.90;14.00;;;;;;;28.00;52.94;99687.81;105521;1284;139292;-76
2022/08/14 12:02:35;;;;;;;16.90;13.60;;;;;;;27.95;53.51;99687.45;106624;1284;109352;-74
2022/08/14 12:05:35;;;;;;;17.40;13.30;;;;;;;27.93;53.83;99680.01;105638;1284;139908;-75
2022/08/14 12:08:09;;;;;;;17.40;14.50;;;;;;;27.92;53.67;99682.09;106586;1284;96214;-76
2022/08/14 12:10:45;;;;;;;14.80;13.30;;;;;;;27.84;54.07;99673.36;106511;1283;139605;-76
2022/08/14 12:13:21;;;;;;;15.20;13.60;;;;;;;27.86;53.96;99673.81;106617;1284;113439;-78
2022/08/14 12:16:01;;;;;;;15.40;13.90;;;;;;;27.87;54.15;99668.19;106396;1284;141134;-74
2022/08/14 12:18:44;;;;;;;17.60;14.10;;;;;;;27.94;54.50;99668.07;106591;1283;107927;-73
2022/08/14 12:21:19;;;;;;;17.00;14.10;;;;;;;28.03;54.42;99665.09;105880;1284;97843;-75
2022/08/14 12:24:03;;;;;;;18.30;14.00;;;;;;;28.08;54.08;99662.34;106156;1283;140312;-76